^^
Saratoga-Weather Station Historical Data
Daily Summary for September 1, 2021 Units:  English    Metric   Both
Daily Weekly Monthly Yearly Custom
  High: Low: Average:
Temperature: 53.8 °F 45.3 °F 50.5 °F
Dew Point: 50.9 °F 43.7 °F 47.8 °F
Humidity: 94% 81% 90%
Wind Speed: 8.1mph 0mph 1.2mph
Wind Gust: 10mph - -
Wind- - WSW
Pressure: 29.6 in 29.6 in -
Precipitation: 0.17 in    
Historical Graphs
 
 
Tabular Data for September 1, 2021
Time Temperature Dew Point Pressure Wind Wind Speed Wind Gust Humidity Rainfall Rate (Hourly) solar
00:02 52.3 °F 50.7 °F 29.6 in Calm   1 mph 94% 0 in 0 W/m2
00:07 52.5 °F 50.9 °F 29.6 in Calm   3 mph 94% 0 in 0 W/m2
00:12 52.5 °F 50.5 °F 29.6 in WNW 2 mph 4 mph 93% 0 in 0 W/m2
00:17 52.7 °F 50.7 °F 29.6 in West 2.9 mph 5 mph 93% 0 in 0 W/m2
00:22 52.7 °F 50.7 °F 29.6 in North 4 mph 6 mph 93% 0 in 0 W/m2
00:27 52.9 °F 50.9 °F 29.6 in Calm     93% 0 in 0 W/m2
00:32 52.7 °F 50.7 °F 29.6 in NW 2 mph 4 mph 93% 0 in 0 W/m2
00:37 52.7 °F 50.7 °F 29.6 in Calm   1 mph 93% 0 in 0 W/m2
00:42 52.5 °F 50.5 °F 29.6 in WNW 4.9 mph 5 mph 93% 0 in 0 W/m2
00:47 52.5 °F 50.5 °F 29.6 in WNW 2 mph 2 mph 93% 0 in 0 W/m2
00:52 52.3 °F 50.4 °F 29.6 in NW 0.9 mph 4 mph 93% 0 in 0 W/m2
00:57 52.3 °F 50.4 °F 29.6 in Calm   2 mph 93% 0 in 0 W/m2
01:02 52.3 °F 50.4 °F 29.6 in NNW 0.9 mph 2 mph 93% 0 in 0 W/m2
01:07 52.2 °F 50.2 °F 29.6 in Calm   2 mph 93% 0 in 0 W/m2
01:13 52.2 °F 50.2 °F 29.6 in NW 2 mph 2 mph 93% 0 in 0 W/m2
01:18 52.2 °F 50.2 °F 29.6 in West 2 mph 3 mph 93% 0 in 0 W/m2
01:23 52.2 °F 50.2 °F 29.6 in WNW 2 mph 6 mph 93% 0 in 0 W/m2
01:28 52.2 °F 50.2 °F 29.6 in West 2.9 mph 3 mph 93% 0 in 0 W/m2
01:33 52.2 °F 50.2 °F 29.6 in Calm   5 mph 93% 0 in 0 W/m2
01:38 52.2 °F 50.2 °F 29.6 in NW 0.9 mph 2 mph 93% 0 in 0 W/m2
01:43 52 °F 50 °F 29.6 in Calm     93% 0 in 0 W/m2
01:48 52 °F 50 °F 29.6 in NW 0.9 mph 2 mph 93% 0 in 0 W/m2
01:53 51.8 °F 49.8 °F 29.6 in Calm   2 mph 93% 0 in 0 W/m2
01:58 51.6 °F 49.6 °F 29.6 in Calm   1 mph 93% 0 in 0 W/m2
02:03 51.6 °F 50 °F 29.6 in Calm   2 mph 94% 0 in 0 W/m2
02:08 51.6 °F 50 °F 29.6 in Calm   1 mph 94% 0 in 0 W/m2
02:13 51.4 °F 49.8 °F 29.6 in Calm     94% 0 in 0 W/m2
02:18 51.3 °F 49.6 °F 29.6 in Calm   1 mph 94% 0 in 0 W/m2
02:23 51.3 °F 49.6 °F 29.6 in Calm     94% 0 in 0 W/m2
02:28 51.1 °F 49.5 °F 29.6 in Calm     94% 0 in 0 W/m2
02:33 51.1 °F 49.5 °F 29.6 in Calm     94% 0 in 0 W/m2
02:38 50.9 °F 49.3 °F 29.6 in Calm   2 mph 94% 0 in 0 W/m2
02:43 50.7 °F 49.1 °F 29.6 in Calm   1 mph 94% 0 in 0 W/m2
02:48 50.7 °F 49.1 °F 29.6 in Calm   4 mph 94% 0 in 0 W/m2
02:53 50.9 °F 49.3 °F 29.6 in Calm     94% 0 in 0 W/m2
02:58 50.7 °F 49.1 °F 29.6 in North 2.9 mph 4 mph 94% 0 in 0 W/m2
03:03 50.7 °F 49.1 °F 29.6 in Calm   3 mph 94% 0 in 0 W/m2
03:08 50.9 °F 49.3 °F 29.6 in Calm   1 mph 94% 0 in 0 W/m2
03:13 50.9 °F 49.3 °F 29.6 in Calm   3 mph 94% 0 in 0 W/m2
03:18 50.9 °F 49.3 °F 29.6 in North 2 mph 4 mph 94% 0 in 0 W/m2
03:23 51.1 °F 49.5 °F 29.6 in NNW 2 mph 2 mph 94% 0 in 0 W/m2
03:28 51.1 °F 49.1 °F 29.6 in Calm   3 mph 93% 0 in 0 W/m2
03:33 51.1 °F 49.1 °F 29.6 in WNW 0.9 mph 3 mph 93% 0 in 0 W/m2
03:38 51.1 °F 49.1 °F 29.6 in Calm   2 mph 93% 0 in 0 W/m2
03:43 51.1 °F 49.1 °F 29.6 in West 0.9 mph 6 mph 93% 0 in 0 W/m2
03:48 51.1 °F 48.9 °F 29.6 in Calm   5 mph 92% 0 in 0 W/m2
04:06 50.4 °F 48.2 °F 29.6 in Calm     92% 0 in 0 W/m2
04:11 50.2 °F 48 °F 29.6 in Calm     92% 0 in 0 W/m2
04:16 49.8 °F 47.7 °F 29.6 in Calm   2 mph 92% 0 in 0 W/m2
04:21 49.6 °F 47.5 °F 29.6 in NW 2 mph 2 mph 92% 0 in 0 W/m2
04:26 49.5 °F 47.5 °F 29.6 in NNW 0.9 mph 3 mph 93% 0 in 0 W/m2
04:31 49.6 °F 47.7 °F 29.6 in Calm   3 mph 93% 0 in 0 W/m2
04:36 49.6 °F 47.5 °F 29.6 in Calm   4 mph 92% 0 in 0 W/m2
04:41 49.5 °F 47.3 °F 29.6 in Calm   2 mph 92% 0 in 0 W/m2
04:46 49.5 °F 47.3 °F 29.6 in NW 0.9 mph 2 mph 92% 0 in 0 W/m2
04:51 49.3 °F 47.1 °F 29.6 in Calm   2 mph 92% 0 in 0 W/m2
04:56 49.3 °F 47.1 °F 29.6 in Calm   2 mph 92% 0 in 0 W/m2
05:01 49.1 °F 46.9 °F 29.6 in Calm   3 mph 92% 0 in 0 W/m2
05:06 48.9 °F 46.8 °F 29.6 in WNW 0.9 mph 6 mph 92% 0 in 0 W/m2
05:11 49.1 °F 46.9 °F 29.6 in NNW 2 mph 2 mph 92% 0 in 0 W/m2
05:16 48.9 °F 46.8 °F 29.6 in Calm   6 mph 92% 0 in 0 W/m2
05:21 48.9 °F 46.8 °F 29.6 in NW 2 mph 2 mph 92% 0 in 0 W/m2
05:26 48.9 °F 46.8 °F 29.6 in NNW 2.9 mph 3 mph 92% 0 in 0 W/m2
05:31 48.7 °F 46.6 °F 29.6 in NW 2 mph 4 mph 92% 0 in 0 W/m2
05:36 48.9 °F 46.9 °F 29.6 in NNW 4 mph 5 mph 93% 0 in 0 W/m2
05:41 48.9 °F 46.8 °F 29.6 in NNE 0.9 mph 3 mph 92% 0 in 0 W/m2
05:46 48.9 °F 46.8 °F 29.6 in North 2 mph 3 mph 92% 0 in 0 W/m2
05:51 48.9 °F 46.8 °F 29.6 in NNE 0.9 mph 2 mph 92% 0 in 0 W/m2
05:56 48.7 °F 46.6 °F 29.6 in NNE 2 mph 2 mph 92% 0 in 0 W/m2
06:01 48.7 °F 46.6 °F 29.6 in NW 0.9 mph 3 mph 92% 0 in 0 W/m2
06:06 48.7 °F 46.6 °F 29.6 in Calm   2 mph 92% 0 in 0 W/m2
06:11 48.7 °F 46.6 °F 29.6 in Calm   2 mph 92% 0 in 0 W/m2
06:16 48.7 °F 46.6 °F 29.6 in Calm   1 mph 92% 0 in 0 W/m2
06:21 48.6 °F 46.4 °F 29.6 in North 2 mph 5 mph 92% 0 in 0 W/m2
06:26 48.6 °F 46.4 °F 29.6 in NE 0.9 mph 3 mph 92% 0 in 0 W/m2
06:32 48.6 °F 46.4 °F 29.6 in SW 2.9 mph 4 mph 92% 0 in 0 W/m2
06:37 48.6 °F 46.4 °F 29.6 in Calm   1 mph 92% 0 in 0 W/m2
06:42 48.6 °F 46.4 °F 29.6 in Calm   1 mph 92% 0 in 0 W/m2
06:47 48.6 °F 46.4 °F 29.6 in NNW 2 mph 4 mph 92% 0 in 0 W/m2
06:52 48.4 °F 46.2 °F 29.6 in Calm     92% 0 in 0 W/m2
06:57 48.4 °F 46.2 °F 29.6 in WSW 0.9 mph 3 mph 92% 0 in 0 W/m2
07:02 48.4 °F 46.2 °F 29.6 in Calm   2 mph 92% 0 in 0 W/m2
07:07 48.2 °F 46 °F 29.6 in North 2 mph 5 mph 92% 0 in 0 W/m2
07:12 48 °F 45.9 °F 29.6 in West 0.9 mph 1 mph 92% 0 in 0 W/m2
07:17 47.8 °F 45.7 °F 29.6 in Calm   1 mph 92% 0 in 0 W/m2
07:22 47.7 °F 45.5 °F 29.6 in Calm   2 mph 92% 0 in 0 W/m2
07:27 47.5 °F 45.3 °F 29.6 in NNE 0.9 mph 2 mph 92% 0 in 0 W/m2
07:32 47.1 °F 45.1 °F 29.6 in Calm     93% 0 in 5 W/m2
07:37 47.1 °F 45.1 °F 29.6 in Calm   3 mph 93% 0 in 5 W/m2
07:42 47.1 °F 45.1 °F 29.6 in West 0.9 mph 3 mph 93% 0 in 7 W/m2
07:47 47.1 °F 45.5 °F 29.6 in Calm   2 mph 94% 0 in 9 W/m2
07:52 47.1 °F 45.5 °F 29.6 in NE 2.9 mph 3 mph 94% 0 in 16 W/m2
07:57 47.5 °F 45.9 °F 29.6 in WSW 0.9 mph 2 mph 94% 0 in 28 W/m2
08:02 47.7 °F 46 °F 29.6 in NNW 0.9 mph 4 mph 94% 0 in 25 W/m2
08:07 48 °F 46.4 °F 29.6 in Calm   2 mph 94% 0 in 47 W/m2
08:12 48.2 °F 46.6 °F 29.6 in East 0.9 mph 3 mph 94% 0 in 28 W/m2
08:17 48.4 °F 46.4 °F 29.6 in Calm   2 mph 93% 0 in 46 W/m2
08:22 48.6 °F 46.6 °F 29.6 in Calm     93% 0 in 33 W/m2
08:27 48.7 °F 46.8 °F 29.6 in NE 0.9 mph 2 mph 93% 0 in 37 W/m2
08:32 48.9 °F 46.9 °F 29.6 in North 2 mph 2 mph 93% 0 in 70 W/m2
08:37 49.3 °F 47.3 °F 29.6 in North 4 mph 8 mph 93% 0 in 46 W/m2
08:42 49.5 °F 47.5 °F 29.6 in NNW 2 mph 4 mph 93% 0 in 76 W/m2
08:47 49.6 °F 47.5 °F 29.6 in Calm   8 mph 92% 0 in 49 W/m2
08:52 49.8 °F 47.7 °F 29.6 in West 2 mph 4 mph 92% 0 in 62 W/m2
09:11 50.5 °F 48 °F 29.6 in North 4.9 mph 8 mph 91% 0 in 135 W/m2
09:16 50.7 °F 48.2 °F 29.6 in WNW 2 mph 7 mph 91% 0 in 116 W/m2
09:21 51.1 °F 48.2 °F 29.6 in North 6 mph 9 mph 90% 0 in 90 W/m2
09:26 51.3 °F 48.4 °F 29.6 in NW 2.9 mph 5 mph 90% 0 in 120 W/m2
09:31 51.3 °F 48.4 °F 29.6 in North 0.9 mph 2 mph 90% 0 in 95 W/m2
09:36 51.4 °F 48.4 °F 29.6 in West 2 mph 10 mph 89% 0 in 102 W/m2
09:41 51.4 °F 48.4 °F 29.6 in WNW 8.1 mph 8 mph 89% 0 in 116 W/m2
09:46 51.4 °F 48.4 °F 29.6 in NNE 2 mph 10 mph 89% 0 in 88 W/m2
09:51 51.6 °F 48.6 °F 29.6 in NW 4.9 mph 9 mph 89% 0 in 104 W/m2
09:56 51.6 °F 48.6 °F 29.6 in NW 2 mph 3 mph 89% 0 in 67 W/m2
10:01 51.8 °F 48.7 °F 29.6 in WNW 0.9 mph 5 mph 89% 0 in 62 W/m2
10:06 52 °F 48.9 °F 29.6 in NW 4.9 mph 5 mph 89% 0 in 90 W/m2
10:11 52.2 °F 48.7 °F 29.6 in SW 0.9 mph 6 mph 88% 0 in 134 W/m2
10:16 52.3 °F 48.9 °F 29.6 in WNW 2.9 mph 8 mph 88% 0 in 193 W/m2
10:21 52.5 °F 49.1 °F 29.6 in NW 4.9 mph 5 mph 88% 0 in 262 W/m2
10:26 52.9 °F 49.5 °F 29.6 in ENE 0.9 mph 4 mph 88% 0 in 230 W/m2
10:31 53.1 °F 48.9 °F 29.6 in WNW 6.9 mph 8 mph 86% 0 in 134 W/m2
10:36 53.1 °F 49.3 °F 29.6 in NNW 2.9 mph 5 mph 87% 0 in 77 W/m2
10:41 52.9 °F 49.1 °F 29.6 in WNW 8.1 mph 8 mph 87% 0 in 79 W/m2
10:46 52.5 °F 48.7 °F 29.6 in ENE 2.9 mph 3 mph 87% 0 in 28 W/m2
10:51 52.3 °F 48.9 °F 29.6 in NNW 6 mph 6 mph 88% 0.02 in 18 W/m2
10:56 51.4 °F 47.7 °F 29.6 in ENE 2.9 mph 7 mph 87% 0.09 in 23 W/m2
11:01 50.5 °F 46.8 °F 29.6 in Calm   8 mph 87% 0.14 in 23 W/m2
11:06 50.2 °F 47.1 °F 29.6 in NW 2 mph 4 mph 89% 0.16 in 35 W/m2
11:11 50 °F 47.1 °F 29.6 in NNW 0.9 mph 4 mph 90% 0.17 in 47 W/m2
11:16 49.8 °F 46.9 °F 29.6 in NNW 0.9 mph 2 mph 90% 0.17 in 100 W/m2
11:21 49.8 °F 47.3 °F 29.6 in Calm   1 mph 91% 0.17 in 60 W/m2
11:26 49.8 °F 47.3 °F 29.6 in South 0.9 mph 3 mph 91% 0.17 in 51 W/m2
11:31 49.8 °F 47.3 °F 29.6 in North 2 mph 3 mph 91% 0.17 in 114 W/m2
11:36 50.4 °F 48.2 °F 29.6 in Calm   4 mph 92% 0.17 in 81 W/m2
11:41 50.5 °F 48.4 °F 29.6 in Calm   3 mph 92% 0.17 in 142 W/m2
11:47 50.9 °F 48.7 °F 29.6 in West 0.9 mph 3 mph 92% 0.17 in 155 W/m2
11:52 51.4 °F 49.3 °F 29.6 in WNW 0.9 mph 4 mph 92% 0.15 in 160 W/m2
11:57 52 °F 49.6 °F 29.6 in West 2 mph 3 mph 92% 0.07 in 56 W/m2
12:02 52 °F 49.5 °F 29.6 in SSE 0.9 mph 2 mph 91% 0.02 in 51 W/m2
12:07 52 °F 49.5 °F 29.6 in NW 2 mph 3 mph 91% 0.01 in 46 W/m2
12:12 52 °F 49.5 °F 29.6 in NNE 0.9 mph 2 mph 91% 0 in 58 W/m2
12:17 51.8 °F 49.3 °F 29.6 in ESE 2.9 mph 3 mph 91% 0 in 74 W/m2
12:22 51.6 °F 48.7 °F 29.6 in Calm   1 mph 90% 0 in 88 W/m2
12:27 51.6 °F 48.7 °F 29.6 in Calm   3 mph 90% 0 in 83 W/m2
12:32 51.4 °F 48.6 °F 29.6 in ENE 2.9 mph 4 mph 90% 0 in 90 W/m2
12:37 51.4 °F 48.6 °F 29.6 in Calm   2 mph 90% 0 in 79 W/m2
12:54 52 °F 48.9 °F 29.6 in WSW 0.9 mph 3 mph 89% 0 in 42 W/m2
12:59 52 °F 48.9 °F 29.6 in WNW 2 mph 5 mph 89% 0 in 47 W/m2
13:04 52.2 °F 48.7 °F 29.6 in WNW 2 mph 8 mph 88% 0 in 65 W/m2
13:09 52.3 °F 48.9 °F 29.6 in WNW 2 mph 3 mph 88% 0 in 62 W/m2
13:14 52.5 °F 48.7 °F 29.6 in WSW 4 mph 6 mph 87% 0 in 46 W/m2
13:19 52.5 °F 49.1 °F 29.6 in West 2 mph 4 mph 88% 0 in 72 W/m2
13:24 52.9 °F 49.1 °F 29.6 in NNW 0.9 mph 9 mph 87% 0 in 135 W/m2
13:29 53.1 °F 49.3 °F 29.6 in Calm   2 mph 87% 0 in 216 W/m2
13:34 53.2 °F 49.1 °F 29.6 in WNW 2.9 mph 3 mph 86% 0 in 195 W/m2
13:39 53.6 °F 49.3 °F 29.6 in Calm   8 mph 85% 0 in 176 W/m2
13:44 53.8 °F 49.1 °F 29.6 in ESE 6 mph 10 mph 84% 0 in 69 W/m2
13:49 53.8 °F 49.1 °F 29.6 in NW 2.9 mph 7 mph 84% 0 in 91 W/m2
13:54 53.8 °F 49.1 °F 29.6 in NW 2 mph 10 mph 84% 0.01 in 118 W/m2
13:59 53.2 °F 48.6 °F 29.6 in WNW 0.9 mph 6 mph 84% 0.01 in 51 W/m2
14:04 53.1 °F 48.4 °F 29.6 in West 0.9 mph 8 mph 84% 0.01 in 70 W/m2
14:09 52.9 °F 48.6 °F 29.6 in NW 2 mph 4 mph 85% 0.01 in 98 W/m2
14:14 52.7 °F 48 °F 29.6 in NW 0.9 mph 2 mph 84% 0.01 in 97 W/m2
14:19 52.5 °F 47.8 °F 29.6 in WNW 2 mph 6 mph 84% 0.01 in 63 W/m2
14:24 52.5 °F 47.8 °F 29.6 in NW 0.9 mph 8 mph 84% 0.01 in 40 W/m2
14:29 52.5 °F 47.5 °F 29.6 in WNW 2.9 mph 3 mph 83% 0.01 in 39 W/m2
14:34 52.9 °F 47.5 °F 29.6 in WNW 6.9 mph 9 mph 82% 0.01 in 35 W/m2
14:39 52.9 °F 47.5 °F 29.6 in West 4 mph 4 mph 82% 0.01 in 32 W/m2
14:44 52.9 °F 47.3 °F 29.6 in Calm   4 mph 81% 0.01 in 42 W/m2
14:49 52.9 °F 47.5 °F 29.6 in West 0.9 mph 3 mph 82% 0.01 in 74 W/m2
14:54 52.7 °F 47.7 °F 29.6 in Calm   4 mph 83% 0 in 58 W/m2
14:59 52.5 °F 47.5 °F 29.6 in NW 2 mph 4 mph 83% 0 in 53 W/m2
15:04 52.5 °F 47.1 °F 29.6 in WNW 2 mph 3 mph 82% 0 in 58 W/m2
15:10 52.7 °F 47.3 °F 29.6 in Calm   3 mph 82% 0 in 54 W/m2
15:15 52.7 °F 47.7 °F 29.6 in NNE 0.9 mph 2 mph 83% 0 in 39 W/m2
15:20 52.7 °F 47.1 °F 29.6 in WSW 2 mph 3 mph 81% 0 in 33 W/m2
15:25 52.9 °F 47.3 °F 29.6 in WNW 2 mph 3 mph 81% 0 in 33 W/m2
15:30 52.9 °F 47.3 °F 29.6 in Calm   3 mph 81% 0 in 39 W/m2
15:35 52.9 °F 47.5 °F 29.6 in NNW 2 mph 2 mph 82% 0 in 37 W/m2
15:40 52.5 °F 47.1 °F 29.6 in NW 0.9 mph 2 mph 82% 0 in 33 W/m2
15:45 52.5 °F 46.9 °F 29.6 in SE 0.9 mph 3 mph 81% 0 in 30 W/m2
15:50 52.5 °F 47.5 °F 29.6 in Calm     83% 0 in 30 W/m2
15:55 52.3 °F 47.7 °F 29.6 in West 0.9 mph 3 mph 84% 0 in 32 W/m2
16:00 52 °F 46.9 °F 29.6 in Calm   4 mph 83% 0 in 35 W/m2
16:05 51.8 °F 47.1 °F 29.6 in Calm     84% 0 in 30 W/m2
16:10 51.6 °F 47.5 °F 29.6 in Calm   4 mph 86% 0 in 25 W/m2
16:15 51.3 °F 47.3 °F 29.6 in Calm   1 mph 86% 0 in 21 W/m2
16:20 50.9 °F 47.1 °F 29.6 in Calm     87% 0 in 25 W/m2
16:25 50.5 °F 47.1 °F 29.6 in Calm     88% 0 in 21 W/m2
16:30 50.4 °F 46.9 °F 29.6 in SE 0.9 mph 2 mph 88% 0 in 25 W/m2
16:35 50.2 °F 47.1 °F 29.6 in Calm     89% 0 in 28 W/m2
16:40 49.8 °F 46.8 °F 29.6 in Calm   2 mph 89% 0 in 26 W/m2
16:45 49.6 °F 46.8 °F 29.6 in Calm     90% 0 in 25 W/m2
16:50 49.5 °F 46.6 °F 29.6 in Calm     90% 0 in 19 W/m2
16:55 49.3 °F 46.8 °F 29.6 in Calm   1 mph 91% 0 in 16 W/m2
17:00 48.9 °F 46.4 °F 29.6 in Calm     91% 0 in 12 W/m2
17:05 48.7 °F 46.6 °F 29.6 in Calm   1 mph 92% 0 in 9 W/m2
17:10 48.7 °F 46.6 °F 29.6 in Calm   1 mph 92% 0 in 5 W/m2
17:15 48.7 °F 46.8 °F 29.6 in Calm   1 mph 93% 0 in 0 W/m2
17:20 48.7 °F 46.8 °F 29.6 in SSW 2 mph 3 mph 93% 0 in 0 W/m2
17:25 48.7 °F 46.6 °F 29.6 in Calm   1 mph 92% 0 in 0 W/m2
17:30 48.7 °F 46.6 °F 29.6 in East 0.9 mph 1 mph 92% 0 in 0 W/m2
17:35 48.7 °F 46.6 °F 29.6 in East 2 mph 2 mph 92% 0 in 0 W/m2
17:40 48.7 °F 46.2 °F 29.6 in Calm     91% 0 in 0 W/m2
17:45 48.6 °F 46 °F 29.6 in Calm   1 mph 91% 0 in 0 W/m2
17:50 48.4 °F 45.9 °F 29.6 in Calm     91% 0 in 0 W/m2
17:55 48 °F 45.9 °F 29.6 in Calm   1 mph 92% 0 in 0 W/m2
18:00 47.8 °F 45.7 °F 29.6 in Calm     92% 0 in 0 W/m2
18:05 47.7 °F 45.5 °F 29.6 in Calm     92% 0 in 0 W/m2
18:10 47.5 °F 45.3 °F 29.6 in Calm     92% 0 in 0 W/m2
18:15 47.1 °F 45 °F 29.6 in Calm     92% 0 in 0 W/m2
18:20 46.9 °F 45 °F 29.6 in Calm     93% 0 in 0 W/m2
18:25 46.9 °F 45 °F 29.6 in Calm     93% 0 in 0 W/m2
18:30 46.8 °F 44.8 °F 29.6 in Calm     93% 0 in 0 W/m2
18:35 46.4 °F 44.4 °F 29.6 in Calm     93% 0 in 0 W/m2
18:40 46.2 °F 44.2 °F 29.6 in Calm     93% 0 in 0 W/m2
18:45 46 °F 44.1 °F 29.6 in Calm     93% 0 in 0 W/m2
18:50 45.9 °F 44.2 °F 29.6 in Calm     94% 0 in 0 W/m2
18:55 45.7 °F 44.1 °F 29.6 in Calm     94% 0 in 0 W/m2
19:00 45.3 °F 43.7 °F 29.6 in Calm     94% 0 in 0 W/m2
Juneau County Weather
Compliments of Weather Underground - 2 mb